createdAt,value
2023-11-10T00:00:25.612Z,98.39
2023-11-10T00:02:52.400Z,99.10
2023-11-10T00:05:19.144Z,99.20
2023-11-10T00:07:45.882Z,99.90
2023-11-10T00:10:12.626Z,100.00
2023-11-10T00:12:39.236Z,100.00
2023-11-10T00:15:06.302Z,100.00
2023-11-10T00:17:32.867Z,100.00
2023-11-10T00:19:59.450Z,100.00
2023-11-10T00:22:26.039Z,100.00
2023-11-10T00:24:52.622Z,100.00
2023-11-10T00:27:19.258Z,100.00
2023-11-10T00:29:46.087Z,100.00
2023-11-10T00:32:13.141Z,100.00
2023-11-10T00:34:40.291Z,100.00
2023-11-10T00:37:06.925Z,100.00
2023-11-10T00:39:33.562Z,100.00
2023-11-10T00:42:00.147Z,100.00
2023-11-10T00:44:26.920Z,100.00
2023-11-10T00:46:53.527Z,100.00
2023-11-10T00:49:20.095Z,100.00
2023-11-10T00:51:46.746Z,100.00
2023-11-10T00:54:13.366Z,100.00
2023-11-10T00:56:39.980Z,100.00
2023-11-10T00:59:06.551Z,100.00
2023-11-10T01:01:35.082Z,100.00
2023-11-10T01:04:01.776Z,100.00
2023-11-10T01:06:28.757Z,100.00
2023-11-10T01:08:55.646Z,100.00
2023-11-10T01:11:22.236Z,100.00
2023-11-10T01:13:48.796Z,100.00
2023-11-10T01:16:15.479Z,100.00
2023-11-10T01:18:42.389Z,100.00
2023-11-10T01:21:09.149Z,100.00
2023-11-10T01:23:35.857Z,100.00
2023-11-10T01:26:02.480Z,100.00
2023-11-10T01:28:29.041Z,100.00
2023-11-10T01:30:55.688Z,100.00
2023-11-10T01:33:22.541Z,100.00
2023-11-10T01:35:49.250Z,100.00
2023-11-10T01:38:15.896Z,100.00
2023-11-10T01:40:43.085Z,100.00
2023-11-10T01:43:10.672Z,100.00
2023-11-10T01:45:37.325Z,100.00
2023-11-10T01:48:04.957Z,100.00
2023-11-10T01:50:32.168Z,100.00
2023-11-10T01:52:59.329Z,100.00
2023-11-10T01:55:26.443Z,100.00
2023-11-10T01:57:53.414Z,100.00
2023-11-10T02:00:20.222Z,100.00
2023-11-10T02:02:46.989Z,100.00
2023-11-10T02:05:13.607Z,100.00
2023-11-10T02:07:41.089Z,100.00
2023-11-10T02:10:07.858Z,100.00
2023-11-10T02:12:34.482Z,100.00
2023-11-10T02:15:01.103Z,100.00
2023-11-10T02:17:27.688Z,100.00
2023-11-10T02:19:54.294Z,100.00
2023-11-10T02:22:20.875Z,100.00
2023-11-10T02:24:47.543Z,100.00
2023-11-10T02:27:14.154Z,100.00
2023-11-10T02:29:41.570Z,100.00
2023-11-10T02:32:08.139Z,100.00
2023-11-10T02:34:34.767Z,100.00
2023-11-10T02:37:01.348Z,100.00
2023-11-10T02:39:27.990Z,100.00
2023-11-10T02:41:54.580Z,100.00
2023-11-10T02:44:21.483Z,100.00
2023-11-10T02:46:48.342Z,100.00
2023-11-10T02:49:14.953Z,100.00
2023-11-10T02:51:41.516Z,100.00
2023-11-10T02:54:08.098Z,100.00
2023-11-10T02:56:34.708Z,100.00
2023-11-10T02:59:01.306Z,100.00
2023-11-10T03:01:28.079Z,100.00
2023-11-10T03:03:54.816Z,100.00
2023-11-10T03:06:21.486Z,100.00
2023-11-10T03:08:48.090Z,100.00
2023-11-10T03:11:14.701Z,100.00
2023-11-10T03:13:42.191Z,100.00
2023-11-10T03:16:08.863Z,100.00
2023-11-10T03:18:35.527Z,100.00
2023-11-10T03:21:02.220Z,100.00
2023-11-10T03:23:28.862Z,100.00
2023-11-10T03:25:55.481Z,100.00
2023-11-10T03:28:22.066Z,100.00
2023-11-10T03:30:48.680Z,100.00
2023-11-10T03:33:15.290Z,100.00
2023-11-10T03:35:41.892Z,100.00
2023-11-10T03:38:08.509Z,100.00
2023-11-10T03:40:35.109Z,100.00
2023-11-10T03:43:01.681Z,100.00
2023-11-10T03:45:28.275Z,100.00
2023-11-10T03:47:54.921Z,100.00
2023-11-10T03:50:21.524Z,100.00
2023-11-10T03:52:48.107Z,100.00
2023-11-10T03:55:14.663Z,100.00
2023-11-10T03:57:41.274Z,100.00
2023-11-10T04:00:08.468Z,100.00
2023-11-10T04:02:35.260Z,100.00
2023-11-10T04:05:01.844Z,100.00
2023-11-10T04:07:28.506Z,100.00
2023-11-10T04:09:55.176Z,100.00
2023-11-10T04:12:21.801Z,100.00
2023-11-10T04:14:48.417Z,100.00
2023-11-10T04:17:15.042Z,100.00
2023-11-10T04:19:41.595Z,100.00
2023-11-10T04:22:08.164Z,100.00
2023-11-10T04:24:34.965Z,100.00
2023-11-10T04:27:01.541Z,100.00
2023-11-10T04:29:28.158Z,100.00
2023-11-10T04:31:54.787Z,100.00
2023-11-10T04:34:21.383Z,100.00
2023-11-10T04:36:48.042Z,100.00
2023-11-10T04:39:14.789Z,100.00
2023-11-10T04:41:41.393Z,100.00
2023-11-10T04:44:07.965Z,100.00
2023-11-10T04:46:34.572Z,100.00
2023-11-10T04:49:01.149Z,100.00
2023-11-10T04:51:30.841Z,100.00
2023-11-10T04:53:57.427Z,100.00
2023-11-10T04:56:24.024Z,100.00
2023-11-10T04:58:50.624Z,100.00
2023-11-10T05:01:17.203Z,100.00
2023-11-10T05:03:43.972Z,100.00
2023-11-10T05:06:10.592Z,100.00
2023-11-10T05:08:37.233Z,100.00
2023-11-10T05:11:03.852Z,100.00
2023-11-10T05:13:30.415Z,100.00
2023-11-10T05:15:57.063Z,100.00
2023-11-10T05:20:53.197Z,100.00
2023-11-10T05:23:19.813Z,100.00
2023-11-10T05:25:46.507Z,100.00
2023-11-10T05:28:13.092Z,100.00
2023-11-10T05:30:39.693Z,100.00
2023-11-10T05:33:08.216Z,100.00
2023-11-10T05:35:35.034Z,100.00
2023-11-10T05:38:01.601Z,100.00
2023-11-10T05:40:28.260Z,100.00
2023-11-10T05:42:54.892Z,100.00
2023-11-10T05:45:21.511Z,100.00
2023-11-10T05:47:48.170Z,100.00
2023-11-10T05:50:14.786Z,100.00
2023-11-10T05:52:41.350Z,100.00
2023-11-10T05:55:08.180Z,100.00
2023-11-10T05:57:34.853Z,100.00
2023-11-10T06:00:01.452Z,100.00
2023-11-10T06:02:28.000Z,100.00
2023-11-10T06:04:54.752Z,100.00
2023-11-10T06:07:21.374Z,100.00
2023-11-10T06:09:48.062Z,100.00
2023-11-10T06:12:14.756Z,100.00
2023-11-10T06:14:41.352Z,100.00
2023-11-10T06:17:07.861Z,100.00
2023-11-10T06:19:34.435Z,100.00
2023-11-10T06:22:00.981Z,100.00
2023-11-10T06:24:27.597Z,100.00
2023-11-10T06:26:54.269Z,100.00
2023-11-10T06:29:20.836Z,100.00
2023-11-10T06:31:47.688Z,100.00
2023-11-10T06:34:14.622Z,100.00
2023-11-10T06:36:41.216Z,100.00
2023-11-10T06:39:07.729Z,100.00
2023-11-10T06:41:34.353Z,100.00
2023-11-10T06:44:00.948Z,100.00
2023-11-10T06:46:27.785Z,100.00
2023-11-10T06:48:54.692Z,100.00
2023-11-10T06:51:21.620Z,100.00
2023-11-10T06:53:48.384Z,100.00
2023-11-10T06:56:15.403Z,100.00
2023-11-10T06:58:41.974Z,100.00
2023-11-10T07:01:09.808Z,100.00
2023-11-10T07:03:36.551Z,100.00
2023-11-10T07:06:03.313Z,100.00
2023-11-10T07:08:29.921Z,100.00
2023-11-10T07:10:56.537Z,100.00
2023-11-10T07:13:23.116Z,100.00
2023-11-10T07:15:49.827Z,100.00
2023-11-10T07:18:16.656Z,100.00
2023-11-10T07:20:43.304Z,100.00
2023-11-10T07:23:09.905Z,100.00
2023-11-10T07:25:36.606Z,100.00
2023-11-10T07:28:03.457Z,100.00
2023-11-10T07:30:30.156Z,100.00
2023-11-10T07:32:56.895Z,100.00
2023-11-10T07:35:23.509Z,99.73
2023-11-10T07:37:50.091Z,100.00
2023-11-10T07:40:17.034Z,99.49
2023-11-10T07:42:44.206Z,100.00
2023-11-10T07:45:11.509Z,99.90
2023-11-10T07:47:38.127Z,99.81
2023-11-10T07:50:05.313Z,100.00
2023-11-10T07:52:31.860Z,100.00
2023-11-10T07:54:58.879Z,100.00
2023-11-10T07:57:28.319Z,100.00
2023-11-10T07:59:54.992Z,99.46
2023-11-10T08:02:21.518Z,99.77
2023-11-10T08:04:48.143Z,100.00
2023-11-10T08:07:14.761Z,99.50
2023-11-10T08:09:41.354Z,98.88
2023-11-10T08:12:08.181Z,98.97
2023-11-10T08:14:34.831Z,98.20
2023-11-10T08:17:01.437Z,98.39
2023-11-10T08:19:28.029Z,97.34
2023-11-10T08:21:55.336Z,98.29
2023-11-10T08:24:22.889Z,97.78
2023-11-10T08:26:49.465Z,97.85
2023-11-10T08:29:16.023Z,97.47
2023-11-10T08:31:42.646Z,97.47
2023-11-10T08:34:09.402Z,97.92
2023-11-10T08:36:36.142Z,98.18
2023-11-10T08:39:02.781Z,98.00
2023-11-10T08:41:29.393Z,98.06
2023-11-10T08:43:55.976Z,98.27
2023-11-10T08:46:22.588Z,97.93
2023-11-10T08:48:49.289Z,97.12
2023-11-10T08:51:15.903Z,97.37
2023-11-10T08:53:45.231Z,97.97
2023-11-10T08:56:12.765Z,96.82
2023-11-10T08:58:39.370Z,96.30
2023-11-10T09:01:06.033Z,96.63
2023-11-10T09:03:32.724Z,96.21
2023-11-10T09:05:59.428Z,96.11
2023-11-10T09:08:26.029Z,96.21
2023-11-10T09:10:52.574Z,96.79
2023-11-10T09:13:19.254Z,96.02
2023-11-10T09:15:53.530Z,96.01
2023-11-10T09:18:26.002Z,95.77
2023-11-10T09:20:52.624Z,96.18
2023-11-10T09:23:19.267Z,96.45
2023-11-10T09:25:45.923Z,95.74
2023-11-10T09:28:12.621Z,96.12
2023-11-10T09:30:39.261Z,96.01
2023-11-10T09:33:05.909Z,96.33
2023-11-10T09:35:32.506Z,95.97
2023-11-10T09:37:59.160Z,96.29
2023-11-10T09:40:25.737Z,95.96
2023-11-10T09:42:54.696Z,95.88
2023-11-10T09:45:23.363Z,96.35
2023-11-10T09:47:51.873Z,95.92
2023-11-10T09:50:18.594Z,96.16
2023-11-10T09:52:46.075Z,96.03
2023-11-10T09:55:12.672Z,96.12
2023-11-10T09:57:39.326Z,95.99
2023-11-10T10:00:06.517Z,95.83
2023-11-10T10:02:36.052Z,96.21
2023-11-10T10:05:04.243Z,96.30
2023-11-10T10:07:30.823Z,96.05
2023-11-10T10:09:57.521Z,96.01
2023-11-10T10:12:24.099Z,96.81
2023-11-10T10:14:54.614Z,96.23
2023-11-10T10:17:30.322Z,96.65
2023-11-10T10:20:07.183Z,96.76
2023-11-10T10:22:33.950Z,96.82
2023-11-10T10:25:00.686Z,96.64
2023-11-10T10:27:27.340Z,97.40
2023-11-10T10:29:53.929Z,97.00
2023-11-10T10:32:20.536Z,97.03
2023-11-10T10:34:47.198Z,96.86
2023-11-10T10:37:13.768Z,97.53
2023-11-10T10:39:41.172Z,97.10
2023-11-10T10:42:09.453Z,97.28
2023-11-10T10:44:36.063Z,97.93
2023-11-10T10:47:02.793Z,97.42
2023-11-10T10:49:29.394Z,97.86
2023-11-10T10:51:56.204Z,97.28
2023-11-10T10:54:22.846Z,97.39
2023-11-10T10:56:49.435Z,97.13
2023-11-10T10:59:16.624Z,96.67
2023-11-10T11:01:44.259Z,96.71
2023-11-10T11:04:26.062Z,97.04
2023-11-10T11:07:01.542Z,96.13
2023-11-10T11:09:55.831Z,97.22
2023-11-10T11:12:47.342Z,96.34
2023-11-10T11:15:23.501Z,96.24
2023-11-10T11:18:14.744Z,95.81
2023-11-10T11:20:41.350Z,96.09
2023-11-10T11:23:08.827Z,96.07
2023-11-10T11:25:37.132Z,95.52
2023-11-10T11:28:03.795Z,94.58
2023-11-10T11:30:37.456Z,94.86
2023-11-10T11:33:10.620Z,94.66
2023-11-10T11:35:46.670Z,94.88
2023-11-10T11:38:28.932Z,95.29
2023-11-10T11:40:58.613Z,95.10
2023-11-10T11:43:25.309Z,94.75
2023-11-10T11:45:56.010Z,94.24
2023-11-10T11:48:22.611Z,94.16
2023-11-10T11:50:52.369Z,94.12
2023-11-10T11:53:24.944Z,94.07
2023-11-10T11:55:54.591Z,94.16
2023-11-10T11:58:21.272Z,94.00
2023-11-10T12:00:47.905Z,93.39
2023-11-10T12:03:14.965Z,93.23
2023-11-10T12:05:42.144Z,93.90
2023-11-10T12:08:09.050Z,93.91
2023-11-10T12:10:35.624Z,93.97
2023-11-10T12:13:02.229Z,93.74
2023-11-10T12:15:28.932Z,93.94
2023-11-10T12:17:55.621Z,94.53
2023-11-10T12:20:25.175Z,93.50
2023-11-10T12:22:55.261Z,94.35
2023-11-10T12:25:22.248Z,93.68
2023-11-10T12:27:48.955Z,93.91
2023-11-10T12:30:15.700Z,94.02
2023-11-10T12:32:42.382Z,93.60
2023-11-10T12:35:09.814Z,93.39
2023-11-10T12:37:39.609Z,93.81
2023-11-10T12:40:10.177Z,93.05
2023-11-10T12:42:36.885Z,93.97
2023-11-10T12:45:08.744Z,94.23
2023-11-10T12:47:35.319Z,93.53
2023-11-10T12:50:02.504Z,93.72
2023-11-10T12:52:29.150Z,92.93
2023-11-10T12:54:55.817Z,93.24
2023-11-10T12:57:22.441Z,92.86
2023-11-10T12:59:49.083Z,93.21
2023-11-10T13:02:15.663Z,92.98
2023-11-10T13:04:42.300Z,93.31
2023-11-10T13:07:09.036Z,93.30
2023-11-10T13:09:35.676Z,93.20
2023-11-10T13:12:02.329Z,92.64
2023-11-10T13:14:28.918Z,91.48
2023-11-10T13:16:55.575Z,91.05
2023-11-10T13:19:22.168Z,91.31
2023-11-10T13:21:48.811Z,91.67
2023-11-10T13:24:15.354Z,90.91
2023-11-10T13:26:41.981Z,90.92
2023-11-10T13:29:08.557Z,89.54
2023-11-10T13:31:35.234Z,90.19
2023-11-10T13:34:01.922Z,89.99
2023-11-10T13:36:28.535Z,90.64
2023-11-10T13:38:55.159Z,91.04
2023-11-10T13:41:27.663Z,90.83
2023-11-10T13:43:56.873Z,90.74
2023-11-10T13:46:25.986Z,91.09
2023-11-10T13:48:53.140Z,90.89
2023-11-10T13:51:19.733Z,91.37
2023-11-10T13:53:46.306Z,90.77
2023-11-10T13:56:12.906Z,90.99
2023-11-10T13:58:39.525Z,91.12
2023-11-10T14:01:06.246Z,91.13
2023-11-10T14:03:39.398Z,91.70
2023-11-10T14:06:06.402Z,91.27
2023-11-10T14:08:32.945Z,91.10
2023-11-10T14:10:59.512Z,90.48
2023-11-10T14:13:26.041Z,90.81
2023-11-10T14:15:52.634Z,90.73
2023-11-10T14:18:19.196Z,90.29
2023-11-10T14:20:45.794Z,90.76
2023-11-10T14:23:12.368Z,90.61
2023-11-10T14:25:38.925Z,90.11
2023-11-10T14:28:05.560Z,90.65
2023-11-10T14:30:32.210Z,90.94
2023-11-10T14:32:58.832Z,90.33
2023-11-10T14:35:25.387Z,90.17
2023-11-10T14:37:51.969Z,90.39
2023-11-10T14:40:19.363Z,91.13
2023-11-10T14:42:46.116Z,90.70
2023-11-10T14:45:12.700Z,90.63
2023-11-10T14:47:39.956Z,90.95
2023-11-10T14:50:06.691Z,90.37
2023-11-10T14:52:33.249Z,91.06
2023-11-10T14:54:59.854Z,91.14
2023-11-10T14:57:26.462Z,90.51
2023-11-10T14:59:53.007Z,90.35
2023-11-10T15:02:19.576Z,90.36
2023-11-10T15:04:46.255Z,90.53
2023-11-10T15:07:13.281Z,91.31
2023-11-10T15:09:40.025Z,91.30
2023-11-10T15:12:10.129Z,90.78
2023-11-10T15:14:37.344Z,90.96
2023-11-10T15:17:07.276Z,91.38
2023-11-10T15:19:36.864Z,91.28
2023-11-10T15:22:03.676Z,91.25
2023-11-10T15:24:30.349Z,90.61
2023-11-10T15:26:56.929Z,90.72
2023-11-10T15:29:23.539Z,90.69
2023-11-10T15:31:50.310Z,91.28
2023-11-10T15:34:18.384Z,91.70
2023-11-10T15:36:44.971Z,91.08
2023-11-10T15:39:15.914Z,91.71
2023-11-10T15:41:43.151Z,91.77
2023-11-10T15:44:09.718Z,91.36
2023-11-10T15:46:36.420Z,91.38
2023-11-10T15:49:03.096Z,91.44
2023-11-10T15:51:33.917Z,92.25
2023-11-10T15:54:06.214Z,92.42
2023-11-10T15:56:32.807Z,91.65
2023-11-10T15:58:59.409Z,92.54
2023-11-10T16:01:26.035Z,92.03
2023-11-10T16:03:52.867Z,91.38
2023-11-10T16:06:19.506Z,91.70
2023-11-10T16:08:46.140Z,91.72
2023-11-10T16:11:12.681Z,91.81
2023-11-10T16:13:39.277Z,91.50
2023-11-10T16:16:08.919Z,91.74
2023-11-10T16:18:35.710Z,91.77
2023-11-10T16:21:02.325Z,91.14
2023-11-10T16:23:28.893Z,91.68
2023-11-10T16:25:55.460Z,91.63
2023-11-10T16:28:22.056Z,91.34
2023-11-10T16:30:48.764Z,91.42
2023-11-10T16:33:15.425Z,92.12
2023-11-10T16:35:41.949Z,91.24
2023-11-10T16:38:08.431Z,91.21
2023-11-10T16:40:34.969Z,91.48
2023-11-10T16:43:01.516Z,91.19
2023-11-10T16:45:28.093Z,91.82
2023-11-10T16:47:54.675Z,91.95
2023-11-10T16:50:21.315Z,91.77
2023-11-10T16:52:47.858Z,91.92
2023-11-10T16:55:14.559Z,92.10
2023-11-10T16:57:41.203Z,91.47
2023-11-10T17:00:08.253Z,91.78
2023-11-10T17:02:42.407Z,91.27
2023-11-10T17:05:11.917Z,91.86
2023-11-10T17:07:39.096Z,91.95
2023-11-10T17:10:07.188Z,91.81
2023-11-10T17:12:33.805Z,91.91
2023-11-10T17:15:00.320Z,91.51
2023-11-10T17:17:26.954Z,91.80
2023-11-10T17:19:53.486Z,91.50
2023-11-10T17:22:20.025Z,91.67
2023-11-10T17:24:46.632Z,91.83
2023-11-10T17:27:13.287Z,91.21
2023-11-10T17:29:39.850Z,90.86
2023-11-10T17:32:07.078Z,90.65
2023-11-10T17:34:33.834Z,91.48
2023-11-10T17:37:00.365Z,90.79
2023-11-10T17:39:27.204Z,90.79
2023-11-10T17:41:53.689Z,90.88
2023-11-10T17:44:20.332Z,91.45
2023-11-10T17:46:46.966Z,91.22
2023-11-10T17:49:13.681Z,92.08
2023-11-10T17:51:40.313Z,91.79
2023-11-10T17:54:07.101Z,91.75
2023-11-10T17:56:33.698Z,91.87
2023-11-10T17:59:00.240Z,91.57
2023-11-10T18:01:26.844Z,92.31
2023-11-10T18:03:53.539Z,92.51
2023-11-10T18:06:20.171Z,92.09
2023-11-10T18:08:47.107Z,92.12
2023-11-10T18:11:22.838Z,92.20
2023-11-10T18:13:49.230Z,92.96
2023-11-10T18:16:15.857Z,92.52
2023-11-10T18:18:42.487Z,92.85
2023-11-10T18:21:09.024Z,93.04
2023-11-10T18:23:35.527Z,93.87
2023-11-10T18:26:02.036Z,93.73
2023-11-10T18:28:28.610Z,94.47
2023-11-10T18:30:55.377Z,94.61
2023-11-10T18:33:22.001Z,94.94
2023-11-10T18:35:48.675Z,94.70
2023-11-10T18:38:15.212Z,94.78
2023-11-10T18:40:41.773Z,95.07
2023-11-10T18:43:08.381Z,95.68
2023-11-10T18:45:34.983Z,95.87
2023-11-10T18:48:01.536Z,95.85
2023-11-10T18:50:28.203Z,95.75
2023-11-10T18:52:57.321Z,96.14
2023-11-10T18:55:23.907Z,95.86
2023-11-10T18:57:50.759Z,96.47
2023-11-10T19:00:17.735Z,96.67
2023-11-10T19:02:44.385Z,96.85
2023-11-10T19:05:11.072Z,97.65
2023-11-10T19:07:37.642Z,97.24
2023-11-10T19:10:04.269Z,97.21
2023-11-10T19:12:30.815Z,97.56
2023-11-10T19:14:57.479Z,97.50
2023-11-10T19:17:24.057Z,98.31
2023-11-10T19:19:50.675Z,97.42
2023-11-10T19:22:17.286Z,97.83
2023-11-10T19:24:43.927Z,97.73
2023-11-10T19:27:10.539Z,97.69
2023-11-10T19:29:37.102Z,97.76
2023-11-10T19:32:03.738Z,97.74
2023-11-10T19:34:30.446Z,98.22
2023-11-10T19:36:57.056Z,98.31
2023-11-10T19:39:24.610Z,97.88
2023-11-10T19:41:51.521Z,97.92
2023-11-10T19:44:18.007Z,98.96
2023-11-10T19:46:44.584Z,98.71
2023-11-10T19:49:11.548Z,98.76
2023-11-10T19:56:46.519Z,99.12
2023-11-10T20:01:42.998Z,99.24
2023-11-10T20:04:09.580Z,98.87
2023-11-10T20:06:36.240Z,98.67
2023-11-10T20:09:02.866Z,99.26
2023-11-10T20:11:29.451Z,99.07
2023-11-10T20:13:55.965Z,98.77
2023-11-10T20:16:22.568Z,98.37
2023-11-10T20:18:49.131Z,98.39
2023-11-10T20:21:18.950Z,98.95
2023-11-10T20:23:45.486Z,99.12
2023-11-10T20:26:12.073Z,98.60
2023-11-10T20:28:38.872Z,99.32
2023-11-10T20:31:05.546Z,99.16
2023-11-10T20:33:33.654Z,99.19
2023-11-10T20:36:00.335Z,98.78
2023-11-10T20:38:26.865Z,98.73
2023-11-10T20:40:53.455Z,99.08
2023-11-10T20:43:20.480Z,98.52
2023-11-10T20:45:47.350Z,99.02
2023-11-10T20:48:14.079Z,98.79
2023-11-10T20:50:40.707Z,98.75
2023-11-10T20:53:07.759Z,99.00
2023-11-10T20:55:35.237Z,98.95
2023-11-10T20:58:01.809Z,99.10
2023-11-10T21:00:28.447Z,98.08
2023-11-10T21:02:55.280Z,98.71
2023-11-10T21:05:21.999Z,98.29
2023-11-10T21:07:48.522Z,98.45
2023-11-10T21:10:15.106Z,98.53
2023-11-10T21:12:42.767Z,98.33
2023-11-10T21:15:10.418Z,97.98
2023-11-10T21:17:37.067Z,98.87
2023-11-10T21:20:04.046Z,98.26
2023-11-10T21:22:30.597Z,98.47
2023-11-10T21:24:57.181Z,98.46
2023-11-10T21:27:23.809Z,98.29
2023-11-10T21:29:50.395Z,98.95
2023-11-10T21:32:17.228Z,98.24
2023-11-10T21:34:44.381Z,99.05
2023-11-10T21:37:10.924Z,98.96
2023-11-10T21:39:37.652Z,98.59
2023-11-10T21:42:04.673Z,98.77
2023-11-10T21:44:31.316Z,98.98
2023-11-10T21:46:57.938Z,98.39
2023-11-10T21:49:24.908Z,99.23
2023-11-10T21:51:52.007Z,99.17
2023-11-10T21:54:18.646Z,99.00
2023-11-10T21:56:45.240Z,98.92
2023-11-10T21:59:11.898Z,98.76
2023-11-10T22:01:38.491Z,98.64
2023-11-10T22:04:05.174Z,99.02
2023-11-10T22:06:31.847Z,98.69
2023-11-10T22:08:58.420Z,99.18
2023-11-10T22:11:25.063Z,98.55
2023-11-10T22:13:51.604Z,98.93
2023-11-10T22:16:18.193Z,99.68
2023-11-10T22:18:45.368Z,98.97
2023-11-10T22:21:11.999Z,99.39
2023-11-10T22:23:38.627Z,99.78
2023-11-10T22:26:05.154Z,99.17
2023-11-10T22:28:34.485Z,100.00
2023-11-10T22:31:01.189Z,100.00
2023-11-10T22:33:27.918Z,99.85
2023-11-10T22:35:54.566Z,100.00
2023-11-10T22:38:21.164Z,100.00
2023-11-10T22:40:47.755Z,100.00
2023-11-10T22:43:14.326Z,100.00
2023-11-10T22:45:41.005Z,100.00
2023-11-10T22:48:07.777Z,100.00
2023-11-10T22:50:34.427Z,100.00
2023-11-10T22:53:00.996Z,100.00
2023-11-10T22:55:27.547Z,100.00
2023-11-10T22:57:54.140Z,100.00
2023-11-10T23:00:20.758Z,100.00
2023-11-10T23:02:47.442Z,100.00
2023-11-10T23:05:14.057Z,100.00
2023-11-10T23:07:40.656Z,100.00
2023-11-10T23:10:07.680Z,100.00
2023-11-10T23:12:34.275Z,100.00
2023-11-10T23:15:00.930Z,100.00
2023-11-10T23:17:27.560Z,100.00
2023-11-10T23:19:54.194Z,100.00
2023-11-10T23:22:20.775Z,100.00
2023-11-10T23:24:47.342Z,100.00
2023-11-10T23:27:14.149Z,100.00
2023-11-10T23:29:41.879Z,100.00
2023-11-10T23:32:08.489Z,100.00
2023-11-10T23:34:35.077Z,100.00
2023-11-10T23:37:01.625Z,100.00
2023-11-10T23:39:28.208Z,100.00
2023-11-10T23:41:54.794Z,100.00
2023-11-10T23:44:21.432Z,100.00
2023-11-10T23:46:48.058Z,100.00
2023-11-10T23:49:14.758Z,100.00
2023-11-10T23:51:41.420Z,100.00
2023-11-10T23:54:08.118Z,100.00
2023-11-10T23:56:34.742Z,100.00
2023-11-10T23:59:01.297Z,100.00
